Home > Products > Valid Products > TAF

000
FTUS42 KRAH 162102 AAA
TAFINT
TAF AMD
KINT 162102Z 1621/1718 VRB03KT P6SM VCTS BKN050CB
      TEMPO 1621/1624 31010G20KT 5SM SHRA BKN050
     FM170600 03005KT P6SM BKN035
     FM171300 04009KT P6SM OVC012=



000
FTUS42 KRAH 162102 AAA
TAFINT
TAF AMD
KINT 162102Z 1621/1718 VRB03KT P6SM VCTS BKN050CB
      TEMPO 1621/1624 31010G20KT 5SM SHRA BKN050
     FM170600 03005KT P6SM BKN035
     FM171300 04009KT P6SM OVC012=



000
FTUS42 KRAH 162056 AAC
TAFGSO
TAF AMD
KGSO 162056Z 1621/1718 00000KT P6SM VCTS SCT045CB BKN090 BKN250
      TEMPO 1621/1624 32010G20KT 5SM SHRA BKN040
     FM170000 VRB05KT P6SM BKN060 BKN100
     FM170600 03005KT P6SM BKN035
     FM171300 04009KT P6SM OVC012=



000
FTUS42 KRAH 162056 AAC
TAFGSO
TAF AMD
KGSO 162056Z 1621/1718 00000KT P6SM VCTS SCT045CB BKN090 BKN250
      TEMPO 1621/1624 32010G20KT 5SM SHRA BKN040
     FM170000 VRB05KT P6SM BKN060 BKN100
     FM170600 03005KT P6SM BKN035
     FM171300 04009KT P6SM OVC012=



000
FTUS42 KRAH 162048 AAB
TAFGSO
TAF AMD
KGSO 162048Z 1621/1718 00000KT P6SM VCTS SCT045CB BKN090 BKN250
     FM162200 VRB05KT P6SM BKN060 BKN100
     FM170600 03005KT P6SM BKN035
     FM171300 04009KT P6SM OVC012=



000
FTUS42 KRAH 162046 AAA
TAFGSO
TAF AMD
KGSO 162046Z 1621/1718 VRB06KT P6SM VCTS BKN040CB BKN150
     FM170600 03005KT P6SM BKN035
     FM171300 04009KT P6SM OVC012=



000
FTUS42 KRAH 162046 AAA
TAFGSO
TAF AMD
KGSO 162046Z 1621/1718 VRB06KT P6SM VCTS BKN040CB BKN150
     FM170600 03005KT P6SM BKN035
     FM171300 04009KT P6SM OVC012=



000
FTUS42 KRAH 161732
TAFRWI
TAF
KRWI 161732Z 1618/1718 VRB04KT P6SM BKN050
     FM170900 03005KT P6SM SCT015 BKN035
     FM171400 04009KT P6SM OVC012=



000
FTUS42 KRAH 161732
TAFGSO
TAF
KGSO 161732Z 1618/1718 VRB06KT P6SM VCSH BKN040 BKN150
     FM170600 03005KT P6SM BKN035
     FM171300 04009KT P6SM OVC012=



000
FTUS42 KRAH 161732
TAFINT
TAF
KINT 161732Z 1618/1718 VRB03KT P6SM VCSH BKN050
     FM170600 03005KT P6SM BKN035
     FM171300 04009KT P6SM OVC012=



000
FTUS42 KRAH 161732
TAFRDU
TAF
KRDU 161732Z 1618/1718 VRB03KT P6SM SCT040 BKN120
     FM170900 04005KT P6SM SCT015 BKN035
     FM171400 05009KT P6SM OVC012=



000
FTUS42 KRAH 161732
TAFRDU
TAF
KRDU 161732Z 1618/1718 VRB03KT P6SM SCT040 BKN120
     FM170900 04005KT P6SM SCT015 BKN035
     FM171400 05009KT P6SM OVC012=



000
FTUS42 KRAH 161732
TAFGSO
TAF
KGSO 161732Z 1618/1718 VRB06KT P6SM VCSH BKN040 BKN150
     FM170600 03005KT P6SM BKN035
     FM171300 04009KT P6SM OVC012=



000
FTUS42 KRAH 161732
TAFFAY
TAF
KFAY 161732Z 1618/1718 VRB05KT P6SM BKN050
      TEMPO 1703/1707 5SM -SHRA BR BKN012 BKN050
     FM171300 04006KT P6SM SCT015 BKN035=



000
FTUS42 KRAH 161732
TAFINT
TAF
KINT 161732Z 1618/1718 VRB03KT P6SM VCSH BKN050
     FM170600 03005KT P6SM BKN035
     FM171300 04009KT P6SM OVC012=



000
FTUS42 KRAH 161732
TAFFAY
TAF
KFAY 161732Z 1618/1718 VRB05KT P6SM BKN050
      TEMPO 1703/1707 5SM -SHRA BR BKN012 BKN050
     FM171300 04006KT P6SM SCT015 BKN035=



000
FTUS42 KRAH 161732
TAFRWI
TAF
KRWI 161732Z 1618/1718 VRB04KT P6SM BKN050
     FM170900 03005KT P6SM SCT015 BKN035
     FM171400 04009KT P6SM OVC012=



000
FTUS42 KRAH 161322 AAB
TAFINT
TAF AMD
KINT 161322Z 1613/1712 00000KT P6SM SCT008
     FM161500 33004KT P6SM SCT024
     FM161800 30004KT P6SM VCSH BKN040
     FM162300 28005KT P6SM SCT050
     FM170500 36005KT P6SM OVC050=



000
FTUS42 KRAH 161322 AAB
TAFINT
TAF AMD
KINT 161322Z 1613/1712 00000KT P6SM SCT008
     FM161500 33004KT P6SM SCT024
     FM161800 30004KT P6SM VCSH BKN040
     FM162300 28005KT P6SM SCT050
     FM170500 36005KT P6SM OVC050=



000
FTUS42 KRAH 161302 AAB
TAFRDU
TAF AMD
KRDU 161302Z 1613/1712 VRB03KT P6SM SCT015 BKN100
     FM161600 36004KT P6SM FEW025 SCT250
     FM162200 VRB03KT P6SM OVC070 PROB30 1622/1702 4SM -SHRA BR
      BKN030=



000
FTUS42 KRAH 161302 AAB
TAFRDU
TAF AMD
KRDU 161302Z 1613/1712 VRB03KT P6SM SCT015 BKN100
     FM161600 36004KT P6SM FEW025 SCT250
     FM162200 VRB03KT P6SM OVC070 PROB30 1622/1702 4SM -SHRA BR
      BKN030=



000
FTUS42 KRAH 161239 AAA
TAFRWI
TAF AMD
KRWI 161239Z 1613/1712 VRB03KT 5SM BR OVC012
     FM161430 30006KT P6SM BKN025
     FM161900 25003KT P6SM SCT035
     FM170200 VRB03KT P6SM OVC060 PROB30 1702/1706 5SM -SHRA BR
      BKN035=



000
FTUS42 KRAH 161236 AAA
TAFRDU
TAF AMD
KRDU 161236Z 1613/1712 VRB03KT 4SM BR BKN015 BKN100
     FM161600 36004KT P6SM FEW022 SCT250
     FM162200 VRB03KT P6SM OVC070 PROB30 1622/1702 4SM -SHRA BR
      BKN030=



000
FTUS42 KRAH 161236 AAA
TAFRDU
TAF AMD
KRDU 161236Z 1613/1712 VRB03KT 4SM BR BKN015 BKN100
     FM161600 36004KT P6SM FEW022 SCT250
     FM162200 VRB03KT P6SM OVC070 PROB30 1622/1702 4SM -SHRA BR
      BKN030=



000
FTUS42 KRAH 161236 AAA
TAFGSO
TAF AMD
KGSO 161236Z 1613/1712 28003KT P6SM BKN010 BKN180
     FM161430 32005KT P6SM BKN020
     FM161600 33004KT P6SM SCT024
     FM161800 30004KT P6SM VCSH BKN040
     FM162300 28005KT P6SM SCT050
     FM170500 36005KT P6SM OVC050=



000
FTUS42 KRAH 161236 AAA
TAFGSO
TAF AMD
KGSO 161236Z 1613/1712 28003KT P6SM BKN010 BKN180
     FM161430 32005KT P6SM BKN020
     FM161600 33004KT P6SM SCT024
     FM161800 30004KT P6SM VCSH BKN040
     FM162300 28005KT P6SM SCT050
     FM170500 36005KT P6SM OVC050=



000
FTUS42 KRAH 161234 AAA
TAFINT
TAF AMD
KINT 161234Z 1613/1712 00000KT 3SM BR OVC003
     FM161330 32005KT P6SM OVC008
     FM161500 33004KT P6SM SCT024
     FM161800 30004KT P6SM VCSH BKN040
     FM162300 28005KT P6SM SCT050
     FM170500 36005KT P6SM OVC050=



000
FTUS42 KRAH 161234 AAA
TAFINT
TAF AMD
KINT 161234Z 1613/1712 00000KT 3SM BR OVC003
     FM161330 32005KT P6SM OVC008
     FM161500 33004KT P6SM SCT024
     FM161800 30004KT P6SM VCSH BKN040
     FM162300 28005KT P6SM SCT050
     FM170500 36005KT P6SM OVC050=



000
FTUS42 KRAH 161123
TAFINT
TAF
KINT 161123Z 1612/1712 24005KT 5SM BR OVC003
      TEMPO 1612/1613 P6SM NSW OVC008
     FM161330 32005KT P6SM OVC008
     FM161500 33004KT P6SM SCT024
     FM161800 30004KT P6SM VCSH BKN040
     FM162300 28005KT P6SM SCT050
     FM170500 36005KT P6SM OVC050=



000
FTUS42 KRAH 161123
TAFRWI
TAF
KRWI 161123Z 1612/1712 18003KT 3SM BR SCT006 OVC020
      TEMPO 1612/1613 1 1/2SM BR OVC005
     FM161430 30006KT P6SM SCT015
     FM162000 25003KT P6SM SCT035
     FM170200 VRB03KT P6SM OVC060 PROB30 1702/1706 5SM -SHRA BR
      BKN035=



000
FTUS42 KRAH 161123
TAFRDU
TAF
KRDU 161123Z 1612/1712 19003KT 4SM BR SCT006 OVC012
      TEMPO 1612/1613 2SM BR OVC005
     FM161500 32005KT P6SM BKN009
     FM161700 36004KT P6SM FEW022 SCT250
     FM162200 VRB03KT P6SM OVC070 PROB30 1622/1702 4SM -SHRA BR
      BKN030=



000
FTUS42 KRAH 161123
TAFFAY
TAF
KFAY 161123Z 1612/1712 20003KT 5SM BR SCT007 OVC018
      TEMPO 1612/1613 2SM BR OVC005
     FM161430 33004KT P6SM SCT015
     FM162000 15003KT P6SM SCT035
     FM170300 VRB03KT P6SM SCT070 BKN120 PROB30 1703/1707 5SM -SHRA
      BR BKN040=



000
FTUS42 KRAH 161123
TAFGSO
TAF
KGSO 161123Z 1612/1712 24005KT 5SM BR OVC003
      TEMPO 1612/1613 P6SM NSW OVC008
     FM161330 32005KT P6SM OVC008
     FM161500 33004KT P6SM SCT024
     FM161800 30004KT P6SM VCSH BKN040
     FM162300 28005KT P6SM SCT050
     FM170500 36005KT P6SM OVC050=



000
FTUS42 KRAH 161123
TAFGSO
TAF
KGSO 161123Z 1612/1712 24005KT 5SM BR OVC003
      TEMPO 1612/1613 P6SM NSW OVC008
     FM161330 32005KT P6SM OVC008
     FM161500 33004KT P6SM SCT024
     FM161800 30004KT P6SM VCSH BKN040
     FM162300 28005KT P6SM SCT050
     FM170500 36005KT P6SM OVC050=



000
FTUS42 KRAH 161123
TAFINT
TAF
KINT 161123Z 1612/1712 24005KT 5SM BR OVC003
      TEMPO 1612/1613 P6SM NSW OVC008
     FM161330 32005KT P6SM OVC008
     FM161500 33004KT P6SM SCT024
     FM161800 30004KT P6SM VCSH BKN040
     FM162300 28005KT P6SM SCT050
     FM170500 36005KT P6SM OVC050=



000
FTUS42 KRAH 161123
TAFFAY
TAF
KFAY 161123Z 1612/1712 20003KT 5SM BR SCT007 OVC018
      TEMPO 1612/1613 2SM BR OVC005
     FM161430 33004KT P6SM SCT015
     FM162000 15003KT P6SM SCT035
     FM170300 VRB03KT P6SM SCT070 BKN120 PROB30 1703/1707 5SM -SHRA
      BR BKN040=



000
FTUS42 KRAH 161123
TAFRDU
TAF
KRDU 161123Z 1612/1712 19003KT 4SM BR SCT006 OVC012
      TEMPO 1612/1613 2SM BR OVC005
     FM161500 32005KT P6SM BKN009
     FM161700 36004KT P6SM FEW022 SCT250
     FM162200 VRB03KT P6SM OVC070 PROB30 1622/1702 4SM -SHRA BR
      BKN030=



000
FTUS42 KRAH 161123
TAFRWI
TAF
KRWI 161123Z 1612/1712 18003KT 3SM BR SCT006 OVC020
      TEMPO 1612/1613 1 1/2SM BR OVC005
     FM161430 30006KT P6SM SCT015
     FM162000 25003KT P6SM SCT035
     FM170200 VRB03KT P6SM OVC060 PROB30 1702/1706 5SM -SHRA BR
      BKN035=



000
FTUS42 KRAH 161058 AAB
TAFINT
TAF AMD
KINT 161058Z 1611/1706 24005KT 5SM BR OVC003
      TEMPO 1611/1613 P6SM NSW OVC008
     FM161330 32005KT P6SM OVC008
     FM161500 33004KT P6SM SCT024
     FM162200 28005KT P6SM OVC040=



000
FTUS42 KRAH 161058 AAB
TAFINT
TAF AMD
KINT 161058Z 1611/1706 24005KT 5SM BR OVC003
      TEMPO 1611/1613 P6SM NSW OVC008
     FM161330 32005KT P6SM OVC008
     FM161500 33004KT P6SM SCT024
     FM162200 28005KT P6SM OVC040=



000
FTUS42 KRAH 161056 AAB
TAFRWI
TAF AMD
KRWI 161056Z 1611/1706 18003KT 3SM BR SCT006 OVC020
      TEMPO 1611/1613 1 1/2SM BR OVC005
     FM161430 30006KT P6SM SCT015
     FM162000 25003KT P6SM SCT035=



000
FTUS42 KRAH 161055 AAB
TAFRDU
TAF AMD
KRDU 161055Z 1611/1706 19003KT 4SM BR SCT006 OVC012
      TEMPO 1611/1613 2SM BR OVC005
     FM161500 32005KT P6SM BKN009
     FM161700 36004KT P6SM FEW022 SCT250
     FM170100 VRB03KT P6SM OVC070=



000
FTUS42 KRAH 161055 AAB
TAFRDU
TAF AMD
KRDU 161055Z 1611/1706 19003KT 4SM BR SCT006 OVC012
      TEMPO 1611/1613 2SM BR OVC005
     FM161500 32005KT P6SM BKN009
     FM161700 36004KT P6SM FEW022 SCT250
     FM170100 VRB03KT P6SM OVC070=



000
FTUS42 KRAH 160918 AAA
TAFFAY
TAF AMD
KFAY 160918Z 1609/1706 20003KT 5SM BR SCT007 OVC018
      TEMPO 1610/1613 2SM BR OVC005
     FM161430 33004KT P6SM SCT015
     FM162000 15003KT P6SM SCT035=



000
FTUS42 KRAH 160918 AAA
TAFFAY
TAF AMD
KFAY 160918Z 1609/1706 20003KT 5SM BR SCT007 OVC018
      TEMPO 1610/1613 2SM BR OVC005
     FM161430 33004KT P6SM SCT015
     FM162000 15003KT P6SM SCT035=



000
FTUS42 KRAH 160916 AAA
TAFRWI
TAF AMD
KRWI 160916Z 1609/1706 18003KT 3SM BR SCT012 BKN100
      TEMPO 1609/1610 2SM BR BKN008
     FM161000 18003KT 2SM BR OVC007
     FM161430 30006KT P6SM SCT015
     FM162000 25003KT P6SM SCT035=



000
FTUS42 KRAH 160916 AAA
TAFRWI
TAF AMD
KRWI 160916Z 1609/1706 18003KT 3SM BR SCT012 BKN100
      TEMPO 1609/1610 2SM BR BKN008
     FM161000 18003KT 2SM BR OVC007
     FM161430 30006KT P6SM SCT015
     FM162000 25003KT P6SM SCT035=



000
FTUS42 KRAH 160915 AAB
TAFGSO
TAF AMD
KGSO 160915Z 1609/1706 23005KT P6SM SCT006 BKN012
      TEMPO 1609/1610 SCT006 OVC018
     FM161000 24005KT 5SM BR OVC007
     FM161330 32005KT P6SM OVC008
     FM161500 33004KT P6SM SCT024
     FM162200 28005KT P6SM OVC040=



000
FTUS42 KRAH 160915 AAB
TAFGSO
TAF AMD
KGSO 160915Z 1609/1706 23005KT P6SM SCT006 BKN012
      TEMPO 1609/1610 SCT006 OVC018
     FM161000 24005KT 5SM BR OVC007
     FM161330 32005KT P6SM OVC008
     FM161500 33004KT P6SM SCT024
     FM162200 28005KT P6SM OVC040=



000
FTUS42 KRAH 160913 AAA
TAFRDU
TAF AMD
KRDU 160913Z 1609/1706 19003KT 5SM BR SCT006 OVC012
      TEMPO 1609/1610 BKN006
     FM161000 20003KT 4SM BR OVC004
     FM161500 32005KT P6SM BKN009
     FM161700 36004KT P6SM FEW022 SCT250
     FM170100 VRB03KT P6SM OVC070=



000
FTUS42 KRAH 160913 AAA
TAFRDU
TAF AMD
KRDU 160913Z 1609/1706 19003KT 5SM BR SCT006 OVC012
      TEMPO 1609/1610 BKN006
     FM161000 20003KT 4SM BR OVC004
     FM161500 32005KT P6SM BKN009
     FM161700 36004KT P6SM FEW022 SCT250
     FM170100 VRB03KT P6SM OVC070=



000
FTUS42 KRAH 160822 AAA
TAFINT
TAF AMD
KINT 160822Z 1608/1706 23005KT P6SM BKN006
      TEMPO 1608/1610 SCT006 OVC018
     FM161000 24005KT 3SM BR OVC003
     FM161330 32005KT P6SM OVC008
     FM161500 33004KT P6SM SCT024
     FM162200 28005KT P6SM OVC040=



000
FTUS42 KRAH 160822 AAA
TAFGSO
TAF AMD
KGSO 160822Z 1608/1706 23005KT P6SM BKN006
      TEMPO 1608/1610 SCT006 OVC018
     FM161000 24005KT 3SM BR OVC003
     FM161330 32005KT P6SM OVC008
     FM161500 33004KT P6SM SCT024
     FM162200 28005KT P6SM OVC040=



000
FTUS42 KRAH 160822 AAA
TAFGSO
TAF AMD
KGSO 160822Z 1608/1706 23005KT P6SM BKN006
      TEMPO 1608/1610 SCT006 OVC018
     FM161000 24005KT 3SM BR OVC003
     FM161330 32005KT P6SM OVC008
     FM161500 33004KT P6SM SCT024
     FM162200 28005KT P6SM OVC040=



000
FTUS42 KRAH 160529
TAFGSO
TAF
KGSO 160529Z 1606/1706 23005KT P6SM BKN006
      TEMPO 1606/1608 SCT006 OVC018
     FM160800 24005KT 3SM BR OVC003
     FM161330 32005KT P6SM OVC008
     FM161500 33004KT P6SM SCT024
     FM162200 28005KT P6SM OVC040=



000
FTUS42 KRAH 160529
TAFFAY
TAF
KFAY 160529Z 1606/1706 VRB02KT 6SM BR SCT025 BKN070
      TEMPO 1606/1609 3SM BR BKN012
     FM160900 20003KT 5SM BR OVC007
      TEMPO 1609/1613 2SM BR OVC003
     FM161430 33004KT P6SM SCT015
     FM162000 15003KT P6SM SCT035=



000
FTUS42 KRAH 160529
TAFGSO
TAF
KGSO 160529Z 1606/1706 23005KT P6SM BKN006
      TEMPO 1606/1608 SCT006 OVC018
     FM160800 24005KT 3SM BR OVC003
     FM161330 32005KT P6SM OVC008
     FM161500 33004KT P6SM SCT024
     FM162200 28005KT P6SM OVC040=



000
FTUS42 KRAH 160529
TAFRDU
TAF
KRDU 160529Z 1606/1706 19003KT P6SM SCT012 BKN120
      TEMPO 1606/1609 BKN012
     FM160900 19003KT 3SM BR OVC003
     FM161500 32005KT P6SM BKN009
     FM161700 36004KT P6SM FEW022 SCT250
     FM170100 VRB03KT P6SM OVC070=



000
FTUS42 KRAH 160529
TAFRWI
TAF
KRWI 160529Z 1606/1706 18003KT 6SM BR SCT012
      TEMPO 1606/1608 3SM BR BKN012
     FM160800 18003KT 2SM BR OVC003
     FM161430 30006KT P6SM SCT015
     FM162000 25003KT P6SM SCT035=



000
FTUS42 KRAH 160529
TAFRDU
TAF
KRDU 160529Z 1606/1706 19003KT P6SM SCT012 BKN120
      TEMPO 1606/1609 BKN012
     FM160900 19003KT 3SM BR OVC003
     FM161500 32005KT P6SM BKN009
     FM161700 36004KT P6SM FEW022 SCT250
     FM170100 VRB03KT P6SM OVC070=



000
FTUS42 KRAH 160529
TAFFAY
TAF
KFAY 160529Z 1606/1706 VRB02KT 6SM BR SCT025 BKN070
      TEMPO 1606/1609 3SM BR BKN012
     FM160900 20003KT 5SM BR OVC007
      TEMPO 1609/1613 2SM BR OVC003
     FM161430 33004KT P6SM SCT015
     FM162000 15003KT P6SM SCT035=



000
FTUS42 KRAH 160529
TAFINT
TAF
KINT 160529Z 1606/1706 23005KT P6SM BKN006
      TEMPO 1606/1608 SCT006 OVC018
     FM160800 24005KT 3SM BR OVC003
     FM161330 32005KT P6SM OVC008
     FM161500 33004KT P6SM SCT024
     FM162200 28005KT P6SM OVC040=



000
FTUS42 KRAH 160529
TAFRWI
TAF
KRWI 160529Z 1606/1706 18003KT 6SM BR SCT012
      TEMPO 1606/1608 3SM BR BKN012
     FM160800 18003KT 2SM BR OVC003
     FM161430 30006KT P6SM SCT015
     FM162000 25003KT P6SM SCT035=



000
FTUS42 KRAH 160529
TAFINT
TAF
KINT 160529Z 1606/1706 23005KT P6SM BKN006
      TEMPO 1606/1608 SCT006 OVC018
     FM160800 24005KT 3SM BR OVC003
     FM161330 32005KT P6SM OVC008
     FM161500 33004KT P6SM SCT024
     FM162200 28005KT P6SM OVC040=



000
FTUS42 KRAH 160452 AAC
TAFGSO
TAF AMD
KGSO 160452Z 1605/1624 24005KT P6SM BKN015 OVC040
      TEMPO 1608/1612 5SM BR OVC005
     FM161400 VRB05KT P6SM SCT050=



000
FTUS42 KRAH 160452 AAC
TAFGSO
TAF AMD
KGSO 160452Z 1605/1624 24005KT P6SM BKN015 OVC040
      TEMPO 1608/1612 5SM BR OVC005
     FM161400 VRB05KT P6SM SCT050=



000
FTUS42 KRAH 160450 AAB
TAFINT
TAF AMD
KINT 160450Z 1605/1624 28005KT P6SM BKN012 OVC035
      TEMPO 1608/1612 5SM BR OVC005
     FM161400 VRB05KT P6SM SCT050=



000
FTUS42 KRAH 160450 AAB
TAFINT
TAF AMD
KINT 160450Z 1605/1624 28005KT P6SM BKN012 OVC035
      TEMPO 1608/1612 5SM BR OVC005
     FM161400 VRB05KT P6SM SCT050=



000
FTUS42 KRAH 160307 AAB
TAFGSO
TAF AMD
KGSO 160307Z 1603/1624 VRB05KT P6SM SCT015
      TEMPO 1607/1611 5SM BR OVC005
     FM161400 VRB05KT P6SM SCT050=



000
FTUS42 KRAH 160307 AAB
TAFGSO
TAF AMD
KGSO 160307Z 1603/1624 VRB05KT P6SM SCT015
      TEMPO 1607/1611 5SM BR OVC005
     FM161400 VRB05KT P6SM SCT050=



000
FTUS42 KRAH 160256 AAA
TAFFAY
TAF AMD
KFAY 160256Z 1603/1624 VRB05KT P6SM OVC045
      TEMPO 1608/1612 5SM BR BKN005 OVC015
     FM161400 VRB05KT P6SM SCT050=



000
FTUS42 KRAH 160256 AAA
TAFFAY
TAF AMD
KFAY 160256Z 1603/1624 VRB05KT P6SM OVC045
      TEMPO 1608/1612 5SM BR BKN005 OVC015
     FM161400 VRB05KT P6SM SCT050=



000
FTUS42 KRAH 160255 AAB
TAFRDU
TAF AMD
KRDU 160255Z 1603/1624 17005KT P6SM OVC025
      TEMPO 1608/1612 5SM BR BKN005 OVC015
     FM161400 VRB05KT P6SM SCT050=



000
FTUS42 KRAH 160255 AAB
TAFRDU
TAF AMD
KRDU 160255Z 1603/1624 17005KT P6SM OVC025
      TEMPO 1608/1612 5SM BR BKN005 OVC015
     FM161400 VRB05KT P6SM SCT050=



000
FTUS42 KRAH 160205 AAA
TAFINT
TAF AMD
KINT 160205Z 1602/1624 VRB05KT P6SM OVC035
      TEMPO 1607/1611 5SM BR OVC005
     FM161400 VRB05KT P6SM SCT050=



000
FTUS42 KRAH 160205 AAA
TAFINT
TAF AMD
KINT 160205Z 1602/1624 VRB05KT P6SM OVC035
      TEMPO 1607/1611 5SM BR OVC005
     FM161400 VRB05KT P6SM SCT050=



000
FTUS42 KRAH 160203 AAA
TAFRDU
TAF AMD
KRDU 160203Z 1602/1624 17005KT P6SM OVC035
      TEMPO 1608/1612 5SM BR BKN005 OVC015
     FM161400 VRB05KT P6SM SCT050=



000
FTUS42 KRAH 160203 AAA
TAFRDU
TAF AMD
KRDU 160203Z 1602/1624 17005KT P6SM OVC035
      TEMPO 1608/1612 5SM BR BKN005 OVC015
     FM161400 VRB05KT P6SM SCT050=



000
FTUS42 KRAH 160203 AAA
TAFGSO
TAF AMD
KGSO 160203Z 1602/1624 VRB05KT P6SM OVC015
      TEMPO 1607/1611 5SM BR OVC005
     FM161400 VRB05KT P6SM SCT050=



000
FTUS42 KRAH 160203 AAA
TAFGSO
TAF AMD
KGSO 160203Z 1602/1624 VRB05KT P6SM OVC015
      TEMPO 1607/1611 5SM BR OVC005
     FM161400 VRB05KT P6SM SCT050=



000
FTUS42 KRAH 152334 CCA
TAFINT
TAF COR
KINT 152334Z 1600/1624 VRB05KT P6SM OVC025
      TEMPO 1607/1611 5SM BR OVC005
     FM161400 VRB05KT P6SM SCT050=



000
FTUS42 KRAH 152334 CCA
TAFINT
TAF COR
KINT 152334Z 1600/1624 VRB05KT P6SM OVC025
      TEMPO 1607/1611 5SM BR OVC005
     FM161400 VRB05KT P6SM SCT050=



000
FTUS42 KRAH 152322
TAFRWI
TAF
KRWI 152322Z 1600/1624 VRB03KT P6SM OVC025
     FM160600 VRB03KT P6SM OVC015
      TEMPO 1608/1612 5SM BR BKN005 OVC015
     FM161400 VRB05KT P6SM SCT050=



000
FTUS42 KRAH 152322
TAFRWI
TAF
KRWI 152322Z 1600/1624 VRB03KT P6SM OVC025
     FM160600 VRB03KT P6SM OVC015
      TEMPO 1608/1612 5SM BR BKN005 OVC015
     FM161400 VRB05KT P6SM SCT050=



000
FTUS42 KRAH 152322
TAFGSO
TAF
KGSO 152322Z 1600/1624 VRB05KT P6SM OVC025
      TEMPO 1607/1611 5SM BR OVC005
     FM161400 VRB05KT P6SM SCT050=



000
FTUS42 KRAH 152322
TAFFAY
TAF
KFAY 152322Z 1600/1624 VRB05KT P6SM OVC022
     FM160300 VRB05KT P6SM OVC017
      TEMPO 1608/1612 5SM BR BKN005 OVC015
     FM161400 VRB05KT P6SM SCT050=



000
FTUS42 KRAH 152322
TAFINT
TAF
KINT 152322Z 1600/1624 26004KT P6SM SCT025 BKN070
     FM160300 VRB05KT P6SM OVC025
      TEMPO 1607/1611 5SM BR OVC005
     FM161400 VRB05KT P6SM SCT050=



000
FTUS42 KRAH 152322
TAFRDU
TAF
KRDU 152322Z 1600/1624 17005KT P6SM OVC025
      TEMPO 1608/1612 5SM BR BKN005 OVC015
     FM161400 VRB05KT P6SM SCT050=



000
FTUS42 KRAH 152322
TAFRDU
TAF
KRDU 152322Z 1600/1624 17005KT P6SM OVC025
      TEMPO 1608/1612 5SM BR BKN005 OVC015
     FM161400 VRB05KT P6SM SCT050=



000
FTUS42 KRAH 152322
TAFFAY
TAF
KFAY 152322Z 1600/1624 VRB05KT P6SM OVC022
     FM160300 VRB05KT P6SM OVC017
      TEMPO 1608/1612 5SM BR BKN005 OVC015
     FM161400 VRB05KT P6SM SCT050=



000
FTUS42 KRAH 152322
TAFINT
TAF
KINT 152322Z 1600/1624 26004KT P6SM SCT025 BKN070
     FM160300 VRB05KT P6SM OVC025
      TEMPO 1607/1611 5SM BR OVC005
     FM161400 VRB05KT P6SM SCT050=



000
FTUS42 KRAH 152322
TAFGSO
TAF
KGSO 152322Z 1600/1624 VRB05KT P6SM OVC025
      TEMPO 1607/1611 5SM BR OVC005
     FM161400 VRB05KT P6SM SCT050=



000
FTUS42 KRAH 152212 AAA
TAFRWI
TAF AMD
KRWI 152212Z 1522/1618 VRB03KT P6SM OVC025
     FM160600 VRB03KT P6SM OVC015
      TEMPO 1608/1612 5SM BR BKN005 OVC015
     FM161400 VRB05KT P6SM SCT050=



000
FTUS42 KRAH 152212 AAA
TAFRWI
TAF AMD
KRWI 152212Z 1522/1618 VRB03KT P6SM OVC025
     FM160600 VRB03KT P6SM OVC015
      TEMPO 1608/1612 5SM BR BKN005 OVC015
     FM161400 VRB05KT P6SM SCT050=



000
FTUS42 KRAH 152211 AAA
TAFFAY
TAF AMD
KFAY 152211Z 1522/1618 VRB05KT P6SM OVC022
     FM160300 VRB05KT P6SM OVC017
      TEMPO 1608/1612 5SM BR BKN005 OVC015
     FM161400 VRB05KT P6SM SCT050=



000
FTUS42 KRAH 152211 AAA
TAFFAY
TAF AMD
KFAY 152211Z 1522/1618 VRB05KT P6SM OVC022
     FM160300 VRB05KT P6SM OVC017
      TEMPO 1608/1612 5SM BR BKN005 OVC015
     FM161400 VRB05KT P6SM SCT050=



000
FTUS42 KRAH 152210 AAA
TAFRDU
TAF AMD
KRDU 152210Z 1522/1618 17005KT P6SM OVC025
      TEMPO 1608/1612 5SM BR BKN005 OVC015
     FM161400 VRB05KT P6SM SCT050=



000
FTUS42 KRAH 152210 AAA
TAFRDU
TAF AMD
KRDU 152210Z 1522/1618 17005KT P6SM OVC025
      TEMPO 1608/1612 5SM BR BKN005 OVC015
     FM161400 VRB05KT P6SM SCT050=



000
FTUS42 KRAH 152123 AAA
TAFGSO
TAF AMD
KGSO 152123Z 1521/1618 VRB05KT P6SM OVC025
      TEMPO 1607/1611 5SM BR OVC005
     FM161400 VRB05KT P6SM SCT050=



000
FTUS42 KRAH 152123 AAA
TAFGSO
TAF AMD
KGSO 152123Z 1521/1618 VRB05KT P6SM OVC025
      TEMPO 1607/1611 5SM BR OVC005
     FM161400 VRB05KT P6SM SCT050=



000
FTUS42 KRAH 152122 AAA
TAFINT
TAF AMD
KINT 152122Z 1521/1618 VRB05KT P6SM OVC025
      TEMPO 1607/1611 5SM BR OVC005
     FM161400 VRB05KT P6SM SCT050=



000
FTUS42 KRAH 151724
TAFRWI
TAF
KRWI 151724Z 1518/1618 18003KT P6SM OVC045
     FM160500 22003KT 6SM BR FEW006 BKN012
      TEMPO 1609/1613 4SM BR BKN006
     FM161300 29005KT P6SM SCT015 BKN100 BKN200
     FM161600 32004KT P6SM SCT050 SCT090=



000
FTUS42 KRAH 151724
TAFINT
TAF
KINT 151724Z 1518/1618 17003KT P6SM OVC025
     FM152000 16003KT P6SM BKN035 BKN150
     FM160000 20004KT P6SM BKN025 OVC100
     FM160300 24003KT 6SM BR FEW003 BKN015
      TEMPO 1607/1610 4SM BR BKN003
     FM161000 29005KT P6SM SCT015 BKN100 BKN200
     FM161400 32004KT P6SM SCT050=



000
FTUS42 KRAH 151724
TAFFAY
TAF
KFAY 151724Z 1518/1618 05004KT P6SM BKN025
     FM152100 16003KT P6SM SCT030 BKN060 BKN180
     FM160500 22003KT 6SM BR FEW006 BKN012
      TEMPO 1609/1613 4SM BR BKN006
     FM161300 29005KT P6SM SCT015 BKN100 BKN200
     FM161600 32004KT P6SM SCT050 SCT090=



000
FTUS42 KRAH 151724
TAFRDU
TAF
KRDU 151724Z 1518/1618 17003KT P6SM SCT016 BKN030 BKN060
     FM152100 17004KT P6SM SCT030 BKN060 BKN180
     FM160400 24003KT 6SM BR FEW006 BKN012
      TEMPO 1608/1612 4SM BR BKN006
     FM161200 29005KT P6SM SCT015 BKN100 BKN200
     FM161500 32004KT P6SM SCT050 SCT090=



000
FTUS42 KRAH 151724
TAFGSO
TAF
KGSO 151724Z 1518/1618 17003KT P6SM BKN025 OVC060
     FM152000 16003KT P6SM BKN035 BKN150
     FM160000 20004KT P6SM BKN025 OVC100
     FM160300 24003KT 6SM BR FEW003 BKN015
      TEMPO 1607/1610 4SM BR BKN003
     FM161000 29005KT P6SM SCT015 BKN100 BKN200
     FM161400 32004KT P6SM SCT050=



000
FTUS42 KRAH 151724
TAFRWI
TAF
KRWI 151724Z 1518/1618 18003KT P6SM OVC045
     FM160500 22003KT 6SM BR FEW006 BKN012
      TEMPO 1609/1613 4SM BR BKN006
     FM161300 29005KT P6SM SCT015 BKN100 BKN200
     FM161600 32004KT P6SM SCT050 SCT090=



000
FTUS42 KRAH 151724
TAFINT
TAF
KINT 151724Z 1518/1618 17003KT P6SM OVC025
     FM152000 16003KT P6SM BKN035 BKN150
     FM160000 20004KT P6SM BKN025 OVC100
     FM160300 24003KT 6SM BR FEW003 BKN015
      TEMPO 1607/1610 4SM BR BKN003
     FM161000 29005KT P6SM SCT015 BKN100 BKN200
     FM161400 32004KT P6SM SCT050=



000
FTUS42 KRAH 151724
TAFRDU
TAF
KRDU 151724Z 1518/1618 17003KT P6SM SCT016 BKN030 BKN060
     FM152100 17004KT P6SM SCT030 BKN060 BKN180
     FM160400 24003KT 6SM BR FEW006 BKN012
      TEMPO 1608/1612 4SM BR BKN006
     FM161200 29005KT P6SM SCT015 BKN100 BKN200
     FM161500 32004KT P6SM SCT050 SCT090=



000
FTUS42 KRAH 151724
TAFGSO
TAF
KGSO 151724Z 1518/1618 17003KT P6SM BKN025 OVC060
     FM152000 16003KT P6SM BKN035 BKN150
     FM160000 20004KT P6SM BKN025 OVC100
     FM160300 24003KT 6SM BR FEW003 BKN015
      TEMPO 1607/1610 4SM BR BKN003
     FM161000 29005KT P6SM SCT015 BKN100 BKN200
     FM161400 32004KT P6SM SCT050=



000
FTUS42 KRAH 151724
TAFFAY
TAF
KFAY 151724Z 1518/1618 05004KT P6SM BKN025
     FM152100 16003KT P6SM SCT030 BKN060 BKN180
     FM160500 22003KT 6SM BR FEW006 BKN012
      TEMPO 1609/1613 4SM BR BKN006
     FM161300 29005KT P6SM SCT015 BKN100 BKN200
     FM161600 32004KT P6SM SCT050 SCT090=



000
FTUS42 KRAH 151541 AAA
TAFRWI
TAF AMD
KRWI 151541Z 1516/1612 VRB03KT P6SM SCT025 OVC035
     FM152000 VRB03KT P6SM OVC035
     FM160900 19003KT 3SM BR OVC005=



000
FTUS42 KRAH 151541 AAA
TAFRWI
TAF AMD
KRWI 151541Z 1516/1612 VRB03KT P6SM SCT025 OVC035
     FM152000 VRB03KT P6SM OVC035
     FM160900 19003KT 3SM BR OVC005=



000
FTUS42 KRAH 151120
TAFRDU
TAF
KRDU 151120Z 1512/1612 06003KT P6SM SCT008 OVC020
      TEMPO 1512/1515 BKN008
     FM152000 15004KT P6SM SCT025 BKN200
     FM160900 20003KT 3SM BR OVC003=



000
FTUS42 KRAH 151120
TAFINT
TAF
KINT 151120Z 1512/1612 08003KT P6SM SCT012 OVC025
      TEMPO 1512/1516 BKN012
     FM151900 15003KT P6SM SCT028 BKN200
     FM152300 17006KT P6SM BKN028
     FM160900 24003KT 5SM BR BKN003=



000
FTUS42 KRAH 151120
TAFRWI
TAF
KRWI 151120Z 1512/1612 02005KT P6SM SCT007 OVC020
      TEMPO 1512/1516 6SM -RA BKN006
     FM151900 VRB03KT P6SM OVC028
     FM160900 19003KT 3SM BR OVC005=



000
FTUS42 KRAH 151120
TAFGSO
TAF
KGSO 151120Z 1512/1612 08003KT P6SM SCT012 OVC025
      TEMPO 1512/1516 BKN012
     FM151900 15003KT P6SM SCT028 BKN200
     FM152300 17006KT P6SM BKN028
     FM160900 24003KT 5SM BR OVC003=



000
FTUS42 KRAH 151120
TAFFAY
TAF
KFAY 151120Z 1512/1612 03003KT P6SM OVC018
      TEMPO 1512/1515 BKN007
     FM152000 07004KT P6SM SCT025 BKN200
     FM160800 22003KT 2SM BR OVC003=



000
FTUS42 KRAH 151120
TAFFAY
TAF
KFAY 151120Z 1512/1612 03003KT P6SM OVC018
      TEMPO 1512/1515 BKN007
     FM152000 07004KT P6SM SCT025 BKN200
     FM160800 22003KT 2SM BR OVC003=



000
FTUS42 KRAH 151120
TAFGSO
TAF
KGSO 151120Z 1512/1612 08003KT P6SM SCT012 OVC025
      TEMPO 1512/1516 BKN012
     FM151900 15003KT P6SM SCT028 BKN200
     FM152300 17006KT P6SM BKN028
     FM160900 24003KT 5SM BR OVC003=



000
FTUS42 KRAH 151120
TAFRWI
TAF
KRWI 151120Z 1512/1612 02005KT P6SM SCT007 OVC020
      TEMPO 1512/1516 6SM -RA BKN006
     FM151900 VRB03KT P6SM OVC028
     FM160900 19003KT 3SM BR OVC005=



000
FTUS42 KRAH 151120
TAFRDU
TAF
KRDU 151120Z 1512/1612 06003KT P6SM SCT008 OVC020
      TEMPO 1512/1515 BKN008
     FM152000 15004KT P6SM SCT025 BKN200
     FM160900 20003KT 3SM BR OVC003=



000
FTUS42 KRAH 151120
TAFINT
TAF
KINT 151120Z 1512/1612 08003KT P6SM SCT012 OVC025
      TEMPO 1512/1516 BKN012
     FM151900 15003KT P6SM SCT028 BKN200
     FM152300 17006KT P6SM BKN028
     FM160900 24003KT 5SM BR BKN003=



000
FTUS42 KRAH 150847 AAA
TAFRDU
TAF AMD
KRDU 150847Z 1509/1606 05004KT P6SM OVC025
     FM151000 06003KT P6SM SCT008 OVC020
      TEMPO 1511/1515 6SM -RA BR BKN008
     FM152000 15004KT P6SM SCT025 BKN200=



000
FTUS42 KRAH 150847 AAA
TAFRDU
TAF AMD
KRDU 150847Z 1509/1606 05004KT P6SM OVC025
     FM151000 06003KT P6SM SCT008 OVC020
      TEMPO 1511/1515 6SM -RA BR BKN008
     FM152000 15004KT P6SM SCT025 BKN200=



000
FTUS42 KRAH 150846 AAA
TAFGSO
TAF AMD
KGSO 150846Z 1509/1606 08003KT P6SM SCT012 OVC025
      TEMPO 1512/1516 BKN012
     FM151900 15003KT P6SM SCT028 BKN200
     FM152300 17006KT P6SM BKN028=



000
FTUS42 KRAH 150846 AAA
TAFGSO
TAF AMD
KGSO 150846Z 1509/1606 08003KT P6SM SCT012 OVC025
      TEMPO 1512/1516 BKN012
     FM151900 15003KT P6SM SCT028 BKN200
     FM152300 17006KT P6SM BKN028=



000
FTUS42 KRAH 150530
TAFFAY
TAF
KFAY 150530Z 1506/1606 03003KT P6SM OVC018
      TEMPO 1511/1515 BKN007
     FM152000 07004KT P6SM SCT025 BKN200=



000
FTUS42 KRAH 150530
TAFINT
TAF
KINT 150530Z 1506/1606 08003KT P6SM SCT012 OVC025
      TEMPO 1512/1516 BKN012
     FM151900 15003KT P6SM SCT028 BKN200
     FM152300 17006KT P6SM BKN028=



000
FTUS42 KRAH 150530
TAFRDU
TAF
KRDU 150530Z 1506/1606 05004KT P6SM OVC025
      TEMPO 1506/1510 -RA
     FM151000 06003KT P6SM SCT008 OVC020
      TEMPO 1511/1515 6SM -RA BR BKN008
     FM152000 15004KT P6SM SCT025 BKN200=



000
FTUS42 KRAH 150530
TAFGSO
TAF
KGSO 150530Z 1506/1606 08003KT P6SM SCT012 OVC025
      TEMPO 1512/1516 BKN012
     FM151900 15003KT P6SM SCT028 BKN200
     FM152300 17006KT P6SM BKN028=



000
FTUS42 KRAH 150530
TAFRWI
TAF
KRWI 150530Z 1506/1606 01005KT P6SM OVC028
     FM151200 02005KT P6SM SCT007 OVC020
      TEMPO 1512/1516 6SM -RA BKN006
     FM152200 15005KT P6SM SCT024 BKN200=



000
FTUS42 KRAH 150530
TAFFAY
TAF
KFAY 150530Z 1506/1606 03003KT P6SM OVC018
      TEMPO 1511/1515 BKN007
     FM152000 07004KT P6SM SCT025 BKN200=



000
FTUS42 KRAH 150530
TAFGSO
TAF
KGSO 150530Z 1506/1606 08003KT P6SM SCT012 OVC025
      TEMPO 1512/1516 BKN012
     FM151900 15003KT P6SM SCT028 BKN200
     FM152300 17006KT P6SM BKN028=



000
FTUS42 KRAH 150530
TAFRDU
TAF
KRDU 150530Z 1506/1606 05004KT P6SM OVC025
      TEMPO 1506/1510 -RA
     FM151000 06003KT P6SM SCT008 OVC020
      TEMPO 1511/1515 6SM -RA BR BKN008
     FM152000 15004KT P6SM SCT025 BKN200=



000
FTUS42 KRAH 150530
TAFINT
TAF
KINT 150530Z 1506/1606 08003KT P6SM SCT012 OVC025
      TEMPO 1512/1516 BKN012
     FM151900 15003KT P6SM SCT028 BKN200
     FM152300 17006KT P6SM BKN028=



000
FTUS42 KRAH 150429 AAB
TAFGSO
TAF AMD
KGSO 150429Z 1504/1524 07004KT P6SM SCT025 BKN035
     FM150600 08003KT P6SM OVC025
     FM151400 VRB04KT P6SM SCT030 BKN150=



000
FTUS42 KRAH 150429 AAB
TAFGSO
TAF AMD
KGSO 150429Z 1504/1524 07004KT P6SM SCT025 BKN035
     FM150600 08003KT P6SM OVC025
     FM151400 VRB04KT P6SM SCT030 BKN150=



000
FTUS42 KRAH 150359 AAB
TAFRDU
TAF AMD
KRDU 150359Z 1504/1524 05004KT P6SM OVC025
     FM151400 14004KT P6SM BKN035=



000
FTUS42 KRAH 150359 AAB
TAFRDU
TAF AMD
KRDU 150359Z 1504/1524 05004KT P6SM OVC025
     FM151400 14004KT P6SM BKN035=



000
FTUS42 KRAH 150358 AAC
TAFINT
TAF AMD
KINT 150358Z 1504/1524 00000KT P6SM OVC025
     FM151300 VRB04KT P6SM SCT030 BKN150=



000
FTUS42 KRAH 150358 AAC
TAFINT
TAF AMD
KINT 150358Z 1504/1524 00000KT P6SM OVC025
     FM151300 VRB04KT P6SM SCT030 BKN150=



000
FTUS42 KRAH 150259 AAB
TAFFAY
TAF AMD
KFAY 150259Z 1503/1524 06003KT P6SM OVC015
      TEMPO 1510/1512 1/2SM FG
     FM151500 07004KT P6SM OVC035
     FM151800 15005KT P6SM OVC050=



000
FTUS42 KRAH 150259 AAB
TAFFAY
TAF AMD
KFAY 150259Z 1503/1524 06003KT P6SM OVC015
      TEMPO 1510/1512 1/2SM FG
     FM151500 07004KT P6SM OVC035
     FM151800 15005KT P6SM OVC050=



000
FTUS42 KRAH 150250 AAB
TAFINT
TAF AMD
KINT 150250Z 1503/1524 VRB04KT P6SM FEW025 OVC080
     FM150600 VRB04KT 5SM BR BKN025
     FM151300 VRB04KT P6SM SCT030 BKN150=



000
FTUS42 KRAH 150250 AAB
TAFINT
TAF AMD
KINT 150250Z 1503/1524 VRB04KT P6SM FEW025 OVC080
     FM150600 VRB04KT 5SM BR BKN025
     FM151300 VRB04KT P6SM SCT030 BKN150=



000
FTUS42 KRAH 150249 AAA
TAFFAY
TAF AMD
KFAY 150249Z 1503/1524 06003KT P6SM OVC030
      TEMPO 1510/1512 1/2SM FG
     FM151500 07004KT P6SM OVC035
     FM151800 15005KT P6SM OVC050=



000
FTUS42 KRAH 150229 AAA
TAFINT
TAF AMD
KINT 150229Z 1502/1524 VRB04KT 5SM BR BKN025
      TEMPO 1502/1505 SCT030
     FM151300 VRB04KT P6SM SCT030 BKN150=



000
FTUS42 KRAH 150152 AAA
TAFRDU
TAF AMD
KRDU 150152Z 1502/1524 05004KT P6SM BKN035
     FM150400 VRB03KT 5SM BR SCT025 BKN035
     FM151400 14004KT P6SM BKN035=



000
FTUS42 KRAH 150152 AAA
TAFRDU
TAF AMD
KRDU 150152Z 1502/1524 05004KT P6SM BKN035
     FM150400 VRB03KT 5SM BR SCT025 BKN035
     FM151400 14004KT P6SM BKN035=



000
FTUS42 KRAH 150151 AAA
TAFGSO
TAF AMD
KGSO 150151Z 1502/1524 VRB05KT P6SM BKN035
     FM150400 VRB04KT 5SM BR SCT025 BKN035
     FM151300 VRB04KT P6SM SCT030 BKN150=



000
FTUS42 KRAH 150151 AAA
TAFGSO
TAF AMD
KGSO 150151Z 1502/1524 VRB05KT P6SM BKN035
     FM150400 VRB04KT 5SM BR SCT025 BKN035
     FM151300 VRB04KT P6SM SCT030 BKN150=



000
FTUS42 KRAH 142353 CCC
TAFINT
TAF COR
KINT 142353Z 1500/1524 VRB04KT 5SM BR BKN025
     FM151300 VRB04KT P6SM SCT030 BKN150=



000
FTUS42 KRAH 142353 CCC
TAFINT
TAF COR
KINT 142353Z 1500/1524 VRB04KT 5SM BR BKN025
     FM151300 VRB04KT P6SM SCT030 BKN150=



000
FTUS42 KRAH 142351 CCA
TAFINT
TAF COR
KINT 142351Z 1500/1524 VRB04KT 5SM BR SCT025 BKN035
     FM151300 VRB04KT P6SM SCT030 BKN150=



000
FTUS42 KRAH 142351 CCA
TAFINT
TAF COR
KINT 142351Z 1500/1524 VRB04KT 5SM BR SCT025 BKN035
     FM151300 VRB04KT P6SM SCT030 BKN150=



000
FTUS42 KRAH 142351 CCB
TAFINT
TAF COR
KINT 142351Z 1500/1524 VRB04KT 5SM BR BKN025
     FM151300 VRB04KT P6SM SCT030 BKN150=



000
FTUS42 KRAH 142351 CCB
TAFINT
TAF COR
KINT 142351Z 1500/1524 VRB04KT 5SM BR BKN025
     FM151300 VRB04KT P6SM SCT030 BKN150=



000
FTUS42 KRAH 142328
TAFFAY
TAF
KFAY 142328Z 1500/1524 06003KT P6SM OVC030
     FM150300 VRB03KT 5SM BR BKN015
      TEMPO 1510/1512 1/2SM FG
     FM151500 07004KT P6SM OVC035
     FM151800 15005KT P6SM OVC050=



000
FTUS42 KRAH 142328
TAFRDU
TAF
KRDU 142328Z 1500/1524 05005KT P6SM BKN035
     FM150400 VRB03KT 5SM BR SCT025 BKN035
     FM151400 14004KT P6SM BKN035=



000
FTUS42 KRAH 142328
TAFGSO
TAF
KGSO 142328Z 1500/1524 VRB03KT P6SM BKN035
     FM150400 VRB04KT 5SM BR SCT025 BKN035
     FM151300 VRB04KT P6SM SCT030 BKN150=



000
FTUS42 KRAH 142328
TAFINT
TAF
KINT 142328Z 1500/1524 VRB03KT P6SM BKN035
     FM150400 VRB04KT 5SM BR SCT025 BKN035
     FM151300 VRB04KT P6SM SCT030 BKN150=



000
FTUS42 KRAH 142328
TAFRWI
TAF
KRWI 142328Z 1500/1524 35008KT P6SM SCT045
     FM150600 VRB03KT 3SM BR BKN010
     FM151400 VRB03KT P6SM BKN050=



000
FTUS42 KRAH 142328
TAFRWI
TAF
KRWI 142328Z 1500/1524 35008KT P6SM SCT045
     FM150600 VRB03KT 3SM BR BKN010
     FM151400 VRB03KT P6SM BKN050=



000
FTUS42 KRAH 142328
TAFFAY
TAF
KFAY 142328Z 1500/1524 06003KT P6SM OVC030
     FM150300 VRB03KT 5SM BR BKN015
      TEMPO 1510/1512 1/2SM FG
     FM151500 07004KT P6SM OVC035
     FM151800 15005KT P6SM OVC050=



000
FTUS42 KRAH 142328
TAFRDU
TAF
KRDU 142328Z 1500/1524 05005KT P6SM BKN035
     FM150400 VRB03KT 5SM BR SCT025 BKN035
     FM151400 14004KT P6SM BKN035=



000
FTUS42 KRAH 142328
TAFINT
TAF
KINT 142328Z 1500/1524 VRB03KT P6SM BKN035
     FM150400 VRB04KT 5SM BR SCT025 BKN035
     FM151300 VRB04KT P6SM SCT030 BKN150=



000
FTUS42 KRAH 142328
TAFGSO
TAF
KGSO 142328Z 1500/1524 VRB03KT P6SM BKN035
     FM150400 VRB04KT 5SM BR SCT025 BKN035
     FM151300 VRB04KT P6SM SCT030 BKN150=



000
FTUS42 KRAH 141738
TAFRDU
TAF
KRDU 141738Z 1418/1518 05005KT P6SM SCT025 BKN035
     FM150000 VRB03KT 5SM BR BKN025
     FM151400 11002KT P6SM BKN035=



000
FTUS42 KRAH 141738
TAFFAY
TAF
KFAY 141738Z 1418/1518 04009KT P6SM BKN025
      TEMPO 1418/1421 SCT025 BKN035
     FM150000 VRB03KT 5SM BR BKN015
      TEMPO 1509/1512 2SM BR
     FM151500 07004KT P6SM SCT015 BKN025=



000
FTUS42 KRAH 141738
TAFRWI
TAF
KRWI 141738Z 1418/1518 01008KT P6SM SCT025 BKN035
      TEMPO 1418/1420 BKN025
     FM150000 VRB03KT P6SM BKN025
     FM150600 VRB03KT 3SM BR BKN010=



000
FTUS42 KRAH 141738
TAFINT
TAF
KINT 141738Z 1418/1518 05009KT P6SM SCT025 BKN035 OVC250
     FM150000 VRB03KT 5SM BR FEW018 BKN025
     FM151300 VRB04KT P6SM SCT030 BKN150=



000
FTUS42 KRAH 141738
TAFGSO
TAF
KGSO 141738Z 1418/1518 05009KT P6SM SCT025 BKN035 OVC250
     FM150000 VRB03KT 5SM BR FEW018 BKN025
     FM151300 VRB04KT P6SM SCT030 BKN150=



000
FTUS42 KRAH 141738
TAFINT
TAF
KINT 141738Z 1418/1518 05009KT P6SM SCT025 BKN035 OVC250
     FM150000 VRB03KT 5SM BR FEW018 BKN025
     FM151300 VRB04KT P6SM SCT030 BKN150=



000
FTUS42 KRAH 141738
TAFRDU
TAF
KRDU 141738Z 1418/1518 05005KT P6SM SCT025 BKN035
     FM150000 VRB03KT 5SM BR BKN025
     FM151400 11002KT P6SM BKN035=



000
FTUS42 KRAH 141738
TAFFAY
TAF
KFAY 141738Z 1418/1518 04009KT P6SM BKN025
      TEMPO 1418/1421 SCT025 BKN035
     FM150000 VRB03KT 5SM BR BKN015
      TEMPO 1509/1512 2SM BR
     FM151500 07004KT P6SM SCT015 BKN025=



000
FTUS42 KRAH 141738
TAFRWI
TAF
KRWI 141738Z 1418/1518 01008KT P6SM SCT025 BKN035
      TEMPO 1418/1420 BKN025
     FM150000 VRB03KT P6SM BKN025
     FM150600 VRB03KT 3SM BR BKN010=



000
FTUS42 KRAH 141738
TAFGSO
TAF
KGSO 141738Z 1418/1518 05009KT P6SM SCT025 BKN035 OVC250
     FM150000 VRB03KT 5SM BR FEW018 BKN025
     FM151300 VRB04KT P6SM SCT030 BKN150=



000
FTUS42 KRAH 141559 AAA
TAFRWI
TAF AMD
KRWI 141559Z 1416/1512 01008KT P6SM SCT025 BKN035
      TEMPO 1416/1419 BKN025
     FM150000 VRB03KT P6SM BKN025
     FM150600 VRB03KT 3SM BR BKN010=



000
FTUS42 KRAH 141500 AAB
TAFFAY
TAF AMD
KFAY 141500Z 1415/1512 04009KT P6SM BKN025
      TEMPO 1417/1421 SCT025 BKN035
     FM150000 VRB03KT 3SM BR BKN010=



000
FTUS42 KRAH 141500 AAB
TAFFAY
TAF AMD
KFAY 141500Z 1415/1512 04009KT P6SM BKN025
      TEMPO 1417/1421 SCT025 BKN035
     FM150000 VRB03KT 3SM BR BKN010=



000
FTUS42 KRAH 141253 AAA
TAFFAY
TAF AMD
KFAY 141253Z 1413/1512 04009KT P6SM SCT025 BKN035
      TEMPO 1413/1416 2SM -RA BR OVC025
     FM150000 VRB03KT 3SM BR BKN010=



000
FTUS42 KRAH 141253 AAA
TAFFAY
TAF AMD
KFAY 141253Z 1413/1512 04009KT P6SM SCT025 BKN035
      TEMPO 1413/1416 2SM -RA BR OVC025
     FM150000 VRB03KT 3SM BR BKN010=



000
FTUS42 KRAH 141140
TAFGSO
TAF
KGSO 141140Z 1412/1512 05009KT P6SM SCT025 BKN035 OVC250
     FM150000 VRB03KT P6SM BKN025
      TEMPO 1508/1512 2SM BR=



000
FTUS42 KRAH 141140
TAFINT
TAF
KINT 141140Z 1412/1512 05009KT P6SM SCT025 BKN035 OVC250
     FM150000 VRB03KT P6SM FEW018 BKN025
      TEMPO 1508/1512 2SM BR=



000
FTUS42 KRAH 141140
TAFRDU
TAF
KRDU 141140Z 1412/1512 05005KT P6SM SCT025 BKN035
     FM150000 VRB03KT P6SM BKN025
     FM150600 VRB02KT 3SM BR BKN012=



000
FTUS42 KRAH 141140
TAFINT
TAF
KINT 141140Z 1412/1512 05009KT P6SM SCT025 BKN035 OVC250
     FM150000 VRB03KT P6SM FEW018 BKN025
      TEMPO 1508/1512 2SM BR=



000
FTUS42 KRAH 141140
TAFRWI
TAF
KRWI 141140Z 1412/1512 01008KT P6SM SCT025 BKN035
     FM150000 VRB03KT P6SM BKN025
     FM150600 VRB03KT 3SM BR BKN010=



000
FTUS42 KRAH 141140
TAFFAY
TAF
KFAY 141140Z 1412/1512 04009KT P6SM SCT025 BKN035
      TEMPO 1415/1418 2SM -RA BR OVC025
     FM150000 VRB03KT 3SM BR BKN010=



000
FTUS42 KRAH 141140
TAFRWI
TAF
KRWI 141140Z 1412/1512 01008KT P6SM SCT025 BKN035
     FM150000 VRB03KT P6SM BKN025
     FM150600 VRB03KT 3SM BR BKN010=



000
FTUS42 KRAH 141140
TAFRDU
TAF
KRDU 141140Z 1412/1512 05005KT P6SM SCT025 BKN035
     FM150000 VRB03KT P6SM BKN025
     FM150600 VRB02KT 3SM BR BKN012=



000
FTUS42 KRAH 141140
TAFFAY
TAF
KFAY 141140Z 1412/1512 04009KT P6SM SCT025 BKN035
      TEMPO 1415/1418 2SM -RA BR OVC025
     FM150000 VRB03KT 3SM BR BKN010=



000
FTUS42 KRAH 141140
TAFGSO
TAF
KGSO 141140Z 1412/1512 05009KT P6SM SCT025 BKN035 OVC250
     FM150000 VRB03KT P6SM BKN025
      TEMPO 1508/1512 2SM BR=



000
FTUS42 KRAH 141017 AAA
TAFINT
TAF AMD
KINT 141017Z 1410/1506 05009KT P6SM SCT025 BKN035 OVC250
     FM150000 VRB03KT P6SM BKN025=



000
FTUS42 KRAH 141017 AAA
TAFINT
TAF AMD
KINT 141017Z 1410/1506 05009KT P6SM SCT025 BKN035 OVC250
     FM150000 VRB03KT P6SM BKN025=



000
FTUS42 KRAH 141016 AAB
TAFGSO
TAF AMD
KGSO 141016Z 1410/1506 05009KT P6SM SCT025 BKN035 OVC250
     FM150000 VRB03KT P6SM BKN025=



000
FTUS42 KRAH 141016 AAB
TAFGSO
TAF AMD
KGSO 141016Z 1410/1506 05009KT P6SM SCT025 BKN035 OVC250
     FM150000 VRB03KT P6SM BKN025=



000
FTUS42 KRAH 140905 AAA
TAFRWI
TAF AMD
KRWI 140905Z 1409/1506 01008KT P6SM SCT025 BKN035
     FM150000 VRB03KT P6SM BKN025=



000
FTUS42 KRAH 140905 AAA
TAFRWI
TAF AMD
KRWI 140905Z 1409/1506 01008KT P6SM SCT025 BKN035
     FM150000 VRB03KT P6SM BKN025=



000
FTUS42 KRAH 140904 AAB
TAFFAY
TAF AMD
KFAY 140904Z 1409/1506 04009KT P6SM BKN025
     FM141200 05005KT 4SM BR OVC015
     FM141800 02006KT 2SM BR OVC007 PROB30 1418/1421 1 1/2SM -RA BR
      OVC004=



000
FTUS42 KRAH 140904 AAB
TAFFAY
TAF AMD
KFAY 140904Z 1409/1506 04009KT P6SM BKN025
     FM141200 05005KT 4SM BR OVC015
     FM141800 02006KT 2SM BR OVC007 PROB30 1418/1421 1 1/2SM -RA BR
      OVC004=



000
FTUS42 KRAH 140903 AAA
TAFRDU
TAF AMD
KRDU 140903Z 1409/1506 05005KT P6SM SCT025 BKN035
     FM150000 VRB03KT P6SM BKN025=



000
FTUS42 KRAH 140903 AAA
TAFRDU
TAF AMD
KRDU 140903Z 1409/1506 05005KT P6SM SCT025 BKN035
     FM150000 VRB03KT P6SM BKN025=



000
FTUS42 KRAH 140901 AAA
TAFGSO
TAF AMD
KGSO 140901Z 1409/1506 05009KT P6SM BKN025 OVC250=



000
FTUS42 KRAH 140901 AAA
TAFGSO
TAF AMD
KGSO 140901Z 1409/1506 05009KT P6SM BKN025 OVC250=



000
FTUS42 KRAH 140714 AAA
TAFFAY
TAF AMD
KFAY 140714Z 1407/1506 04005KT 6SM BR BKN018
      TEMPO 1407/1411 BKN009
     FM141200 05005KT 4SM BR OVC015
     FM141800 02006KT 2SM BR OVC007 PROB30 1418/1421 1 1/2SM -RA BR
      OVC004=



000
FTUS42 KRAH 140714 AAA
TAFFAY
TAF AMD
KFAY 140714Z 1407/1506 04005KT 6SM BR BKN018
      TEMPO 1407/1411 BKN009
     FM141200 05005KT 4SM BR OVC015
     FM141800 02006KT 2SM BR OVC007 PROB30 1418/1421 1 1/2SM -RA BR
      OVC004=



000
FTUS42 KRAH 140538
TAFINT
TAF
KINT 140538Z 1406/1506 04006KT 6SM BR BKN025 OVC250
      TEMPO 1408/1412 BKN012
     FM141400 06007KT P6SM OVC025=



000
FTUS42 KRAH 140538
TAFINT
TAF
KINT 140538Z 1406/1506 04006KT 6SM BR BKN025 OVC250
      TEMPO 1408/1412 BKN012
     FM141400 06007KT P6SM OVC025=



000
FTUS42 KRAH 140538
TAFRDU
TAF
KRDU 140538Z 1406/1506 05008KT 6SM BR SCT009 OVC015
     FM141400 01005KT P6SM BKN025=



000
FTUS42 KRAH 140538
TAFRDU
TAF
KRDU 140538Z 1406/1506 05008KT 6SM BR SCT009 OVC015
     FM141400 01005KT P6SM BKN025=



000
FTUS42 KRAH 140538
TAFGSO
TAF
KGSO 140538Z 1406/1506 03009KT P6SM BKN025 OVC250
      TEMPO 1408/1412 BKN012
     FM141400 06007KT P6SM OVC025=



000
FTUS42 KRAH 140538
TAFFAY
TAF
KFAY 140538Z 1406/1506 03009KT P6SM SCT025 BKN050
     FM140900 04005KT 6SM BR BKN025
     FM141200 05005KT 4SM BR OVC015
     FM141500 02006KT 2SM BR OVC007 PROB30 1415/1421 1 1/2SM -RA BR
      OVC004=



000
FTUS42 KRAH 140538
TAFRWI
TAF
KRWI 140538Z 1406/1506 01008KT 6SM BR OVC025
     FM141400 03005KT P6SM BKN025=



000
FTUS42 KRAH 140538
TAFGSO
TAF
KGSO 140538Z 1406/1506 03009KT P6SM BKN025 OVC250
      TEMPO 1408/1412 BKN012
     FM141400 06007KT P6SM OVC025=



000
FTUS42 KRAH 140538
TAFFAY
TAF
KFAY 140538Z 1406/1506 03009KT P6SM SCT025 BKN050
     FM140900 04005KT 6SM BR BKN025
     FM141200 05005KT 4SM BR OVC015
     FM141500 02006KT 2SM BR OVC007 PROB30 1415/1421 1 1/2SM -RA BR
      OVC004=



000
FTUS42 KRAH 140538
TAFRWI
TAF
KRWI 140538Z 1406/1506 01008KT 6SM BR OVC025
     FM141400 03005KT P6SM BKN025=



000
FTUS42 KRAH 140152 AAA
TAFRDU
TAF AMD
KRDU 140152Z 1402/1424 04005KT P6SM BKN060
     FM140600 05005KT 6SM BR SCT009 BKN015
     FM141400 01005KT P6SM BKN025=



000
FTUS42 KRAH 140152 AAA
TAFRDU
TAF AMD
KRDU 140152Z 1402/1424 04005KT P6SM BKN060
     FM140600 05005KT 6SM BR SCT009 BKN015
     FM141400 01005KT P6SM BKN025=



000
FTUS42 KRAH 140151 AAA
TAFGSO
TAF AMD
KGSO 140151Z 1402/1424 02009KT P6SM BKN060
      TEMPO 1408/1412 BKN012
     FM141400 06007KT P6SM OVC025=



000
FTUS42 KRAH 140151 AAA
TAFGSO
TAF AMD
KGSO 140151Z 1402/1424 02009KT P6SM BKN060
      TEMPO 1408/1412 BKN012
     FM141400 06007KT P6SM OVC025=



000
FTUS42 KRAH 140013 CCA
TAFRWI
TAF COR
KRWI 140013Z 1400/1424 01008KT P6SM BKN035
     FM140900 01005KT P6SM BKN025=



000
FTUS42 KRAH 140013 CCA
TAFRWI
TAF COR
KRWI 140013Z 1400/1424 01008KT P6SM BKN035
     FM140900 01005KT P6SM BKN025=



000
FTUS42 KRAH 132353 AAA
TAFFAY
TAF AMD
KFAY 132353Z 1400/1424 29005KT P6SM -RA OVC035
     FM140600 02005KT 6SM BR BKN015
     FM141400 01005KT P6SM BKN025
     FM142300 03007KT 4SM BR BKN009=



000
FTUS42 KRAH 132352 CCA
TAFGSO
TAF COR
KGSO 132352Z 1400/1424 02007KT P6SM BKN040
      TEMPO 1408/1412 BKN012
     FM141400 06007KT P6SM OVC025=



000
FTUS42 KRAH 132352 CCA
TAFGSO
TAF COR
KGSO 132352Z 1400/1424 02007KT P6SM BKN040
      TEMPO 1408/1412 BKN012
     FM141400 06007KT P6SM OVC025=



000
FTUS42 KRAH 132350 CCA
TAFINT
TAF COR
KINT 132350Z 1400/1424 01007KT P6SM BKN050
     FM140100 04006KT 6SM BR BKN020
      TEMPO 1408/1412 BKN012
     FM141400 06007KT P6SM OVC025=



000
FTUS42 KRAH 132350 CCA
TAFINT
TAF COR
KINT 132350Z 1400/1424 01007KT P6SM BKN050
     FM140100 04006KT 6SM BR BKN020
      TEMPO 1408/1412 BKN012
     FM141400 06007KT P6SM OVC025=



000
FTUS42 KRAH 132320
TAFRDU
TAF
KRDU 132320Z 1400/1424 04005KT P6SM SCT050 BKN180
     FM140600 05005KT 6SM BR SCT009 BKN015
     FM141400 01005KT P6SM BKN025=



000
FTUS42 KRAH 132320
TAFFAY
TAF
KFAY 132320Z 1400/1424 29005KT P6SM -RA OVC035
     FM140600 02005KT 6SM BR BKN015
     FM141400 01005KT P6SM BKN025=



000
FTUS42 KRAH 132320
TAFGSO
TAF
KGSO 132320Z 1400/1424 02007KT P6SM BKN040
      TEMPO 1408/1412 BKN012
     FM141400 06007KT P6SM OVC035=



000
FTUS42 KRAH 132320
TAFINT
TAF
KINT 132320Z 1400/1424 01007KT P6SM BKN050
     FM140100 04006KT 6SM BR BKN020
      TEMPO 1408/1412 BKN012
     FM141400 06007KT P6SM OVC035=



000
FTUS42 KRAH 132320
TAFRWI
TAF
KRWI 132320Z 1400/1424 36010KT P6SM BKN015
     FM140300 01005KT P6SM BKN035
     FM140900 01005KT P6SM BKN025=



000
FTUS42 KRAH 132320
TAFRDU
TAF
KRDU 132320Z 1400/1424 04005KT P6SM SCT050 BKN180
     FM140600 05005KT 6SM BR SCT009 BKN015
     FM141400 01005KT P6SM BKN025=



000
FTUS42 KRAH 132320
TAFGSO
TAF
KGSO 132320Z 1400/1424 02007KT P6SM BKN040
      TEMPO 1408/1412 BKN012
     FM141400 06007KT P6SM OVC035=



000
FTUS42 KRAH 132320
TAFFAY
TAF
KFAY 132320Z 1400/1424 29005KT P6SM -RA OVC035
     FM140600 02005KT 6SM BR BKN015
     FM141400 01005KT P6SM BKN025=



000
FTUS42 KRAH 132320
TAFINT
TAF
KINT 132320Z 1400/1424 01007KT P6SM BKN050
     FM140100 04006KT 6SM BR BKN020
      TEMPO 1408/1412 BKN012
     FM141400 06007KT P6SM OVC035=



000
FTUS42 KRAH 132320
TAFRWI
TAF
KRWI 132320Z 1400/1424 36010KT P6SM BKN015
     FM140300 01005KT P6SM BKN035
     FM140900 01005KT P6SM BKN025=



000
FTUS42 KRAH 132215 AAB
TAFFAY
TAF AMD
KFAY 132215Z 1322/1418 20007KT P6SM VCTS BKN070CB
     FM132300 01007KT P6SM SCT025 BKN035 OVC100
     FM140600 02005KT 6SM BR BKN015
     FM141400 01005KT P6SM BKN025=



000
FTUS42 KRAH 132215 AAB
TAFFAY
TAF AMD
KFAY 132215Z 1322/1418 20007KT P6SM VCTS BKN070CB
     FM132300 01007KT P6SM SCT025 BKN035 OVC100
     FM140600 02005KT 6SM BR BKN015
     FM141400 01005KT P6SM BKN025=



000
FTUS42 KRAH 132145 AAA
TAFFAY
TAF AMD
KFAY 132145Z 1322/1418 VRB05KT 3SM RA BR BKN006
     FM132300 01007KT P6SM SCT025 BKN035 OVC100
     FM140600 02005KT 6SM BR BKN015
     FM141400 01005KT P6SM BKN025=



    US Dept of Commerce
    National Oceanic and Atmospheric Administration
    National Weather Service
    1325 East West Highway
    Silver Spring, MD 20910
    Page Author: NWS Internet Services Team
Disclaimer
Information Quality
Credits
Glossary
Privacy Policy
Freedom of Information Act (FOIA)
About Us
Career Opportunities